createdAt,value
2023-04-19T00:00:12.575Z,3.30
2023-04-19T00:02:41.011Z,3.88
2023-04-19T00:05:10.454Z,5.88
2023-04-19T00:07:37.467Z,5.72
2023-04-19T00:10:04.480Z,4.35
2023-04-19T00:12:31.533Z,5.03
2023-04-19T00:14:58.671Z,3.80
2023-04-19T00:17:25.669Z,4.55
2023-04-19T00:19:52.467Z,3.70
2023-04-19T00:22:19.457Z,3.42
2023-04-19T00:24:46.167Z,3.63
2023-04-19T00:27:12.852Z,5.10
2023-04-19T00:29:39.979Z,3.30
2023-04-19T00:32:06.791Z,3.55
2023-04-19T00:34:33.688Z,3.65
2023-04-19T00:37:00.836Z,3.70
2023-04-19T00:39:27.538Z,3.67
2023-04-19T00:41:54.490Z,4.10
2023-04-19T00:44:21.263Z,4.07
2023-04-19T00:46:48.574Z,3.50
2023-04-19T00:49:17.936Z,4.88
2023-04-19T00:51:44.853Z,4.93
2023-04-19T00:54:13.844Z,4.82
2023-04-19T00:56:41.808Z,4.15
2023-04-19T00:59:08.991Z,3.70
2023-04-19T01:01:38.318Z,5.72
2023-04-19T01:04:05.512Z,3.13
2023-04-19T01:06:33.497Z,4.00
2023-04-19T01:09:00.281Z,3.58
2023-04-19T01:11:29.142Z,3.55
2023-04-19T01:13:56.782Z,4.80
2023-04-19T01:16:24.670Z,5.20
2023-04-19T01:18:51.720Z,6.03
2023-04-19T01:21:18.831Z,4.72
2023-04-19T01:23:45.869Z,3.47
2023-04-19T01:26:12.616Z,4.35
2023-04-19T01:28:41.423Z,4.65
2023-04-19T01:31:09.485Z,3.65
2023-04-19T01:33:37.137Z,3.55
2023-04-19T01:36:04.189Z,2.90
2023-04-19T01:38:31.089Z,3.95
2023-04-19T01:40:57.905Z,6.35
2023-04-19T01:43:24.838Z,3.30
2023-04-19T01:45:51.558Z,3.35
2023-04-19T01:48:19.701Z,4.25
2023-04-19T01:50:46.429Z,3.15
2023-04-19T01:53:13.379Z,5.15
2023-04-19T01:55:40.253Z,7.43
2023-04-19T01:58:07.474Z,3.78
2023-04-19T02:00:34.738Z,4.85
2023-04-19T02:03:04.668Z,3.15
2023-04-19T02:05:31.564Z,3.90
2023-04-19T02:08:01.445Z,3.97
2023-04-19T02:10:31.015Z,4.90
2023-04-19T02:12:57.846Z,5.07
2023-04-19T02:15:24.574Z,3.65
2023-04-19T02:17:51.467Z,4.13
2023-04-19T02:20:19.203Z,5.57
2023-04-19T02:22:47.892Z,6.68
2023-04-19T02:25:15.769Z,4.63
2023-04-19T02:27:42.571Z,5.35
2023-04-19T02:30:09.736Z,5.50
2023-04-19T02:32:36.576Z,4.03
2023-04-19T02:35:06.733Z,5.15
2023-04-19T02:37:33.474Z,4.85
2023-04-19T02:40:00.288Z,4.50
2023-04-19T02:42:29.353Z,4.28
2023-04-19T02:44:56.137Z,4.93
2023-04-19T02:47:24.619Z,5.65
2023-04-19T02:49:51.571Z,5.78
2023-04-19T02:52:19.515Z,5.93
2023-04-19T02:54:46.390Z,4.75
2023-04-19T02:57:13.322Z,5.07
2023-04-19T02:59:42.441Z,4.80
2023-04-19T03:02:09.234Z,4.50
2023-04-19T03:04:36.652Z,6.50
2023-04-19T03:07:03.781Z,4.78
2023-04-19T03:09:30.859Z,4.30
2023-04-19T03:11:58.092Z,4.20
2023-04-19T03:14:24.957Z,6.32
2023-04-19T03:16:52.198Z,4.60
2023-04-19T03:19:19.055Z,4.35
2023-04-19T03:21:50.230Z,5.78
2023-04-19T03:24:29.345Z,4.95
2023-04-19T03:26:58.640Z,4.00
2023-04-19T03:29:29.145Z,3.80
2023-04-19T03:32:09.345Z,3.55
2023-04-19T03:34:36.363Z,5.47
2023-04-19T03:37:03.047Z,6.80
2023-04-19T03:39:30.923Z,3.92
2023-04-19T03:42:02.686Z,4.03
2023-04-19T03:45:08.504Z,4.30
2023-04-19T03:47:41.105Z,4.10
2023-04-19T03:50:09.263Z,3.08
2023-04-19T03:52:38.033Z,3.50
2023-04-19T03:55:05.256Z,4.05
2023-04-19T03:57:38.504Z,6.20
2023-04-19T04:00:14.924Z,3.55
2023-04-19T04:02:41.734Z,4.53
2023-04-19T04:05:11.005Z,3.58
2023-04-19T04:07:40.970Z,4.72
2023-04-19T04:10:08.801Z,4.00
2023-04-19T04:12:41.127Z,3.92
2023-04-19T04:15:11.190Z,6.22
2023-04-19T04:17:43.783Z,4.57
2023-04-19T04:20:13.522Z,2.90
2023-04-19T04:22:43.003Z,4.05
2023-04-19T04:27:39.528Z,3.45
2023-04-19T04:30:12.258Z,5.10
2023-04-19T04:32:41.101Z,6.32
2023-04-19T04:35:09.487Z,5.38
2023-04-19T04:37:42.896Z,4.45
2023-04-19T04:40:10.500Z,7.45
2023-04-19T04:42:37.902Z,3.95
2023-04-19T04:45:06.007Z,6.50
2023-04-19T04:47:34.986Z,4.00
2023-04-19T04:50:06.208Z,5.35
2023-04-19T04:52:33.902Z,5.53
2023-04-19T04:55:11.325Z,4.22
2023-04-19T04:57:43.039Z,8.73
2023-04-19T05:00:15.727Z,4.78
2023-04-19T05:02:52.485Z,6.13
2023-04-19T05:05:19.734Z,7.35
2023-04-19T05:07:46.885Z,11.18
2023-04-19T05:10:13.845Z,13.98
2023-04-19T05:12:45.601Z,11.38
2023-04-19T05:15:12.537Z,10.45
2023-04-19T05:17:44.132Z,9.93
2023-04-19T05:20:12.425Z,6.43
2023-04-19T05:22:39.905Z,6.70
2023-04-19T05:25:10.332Z,8.75
2023-04-19T05:27:37.524Z,4.80
2023-04-19T05:30:06.694Z,6.20
2023-04-19T05:32:35.531Z,9.90
2023-04-19T05:35:04.699Z,5.03
2023-04-19T05:37:31.568Z,6.78
2023-04-19T05:39:58.623Z,5.82
2023-04-19T05:42:25.586Z,6.95
2023-04-19T05:44:52.336Z,5.68
2023-04-19T05:47:19.766Z,7.63
2023-04-19T05:50:12.260Z,4.53
2023-04-19T05:52:44.767Z,5.90
2023-04-19T05:55:11.659Z,6.88
2023-04-19T05:57:42.995Z,4.55
2023-04-19T06:00:10.579Z,3.80
2023-04-19T06:02:51.178Z,3.45
2023-04-19T06:05:18.550Z,5.20
2023-04-19T06:07:54.533Z,4.95
2023-04-19T06:10:31.294Z,4.85
2023-04-19T06:13:01.306Z,5.10
2023-04-19T06:15:28.296Z,5.65
2023-04-19T06:17:55.123Z,5.05
2023-04-19T06:20:23.066Z,5.07
2023-04-19T06:22:49.924Z,4.75
2023-04-19T06:25:16.558Z,4.65
2023-04-19T06:27:43.445Z,4.38
2023-04-19T06:30:10.386Z,4.88
2023-04-19T06:32:37.233Z,6.03
2023-04-19T06:35:06.224Z,5.10
2023-04-19T06:37:34.396Z,3.83
2023-04-19T06:40:01.712Z,4.65
2023-04-19T06:42:28.579Z,3.63
2023-04-19T06:44:57.264Z,3.95
2023-04-19T06:47:24.127Z,4.93
2023-04-19T06:49:50.879Z,4.45
2023-04-19T06:52:17.661Z,4.38
2023-04-19T06:54:51.210Z,5.55
2023-04-19T06:57:18.912Z,4.00
2023-04-19T06:59:45.926Z,4.55
2023-04-19T07:02:12.848Z,4.38
2023-04-19T07:04:39.714Z,5.05
2023-04-19T07:07:06.785Z,4.53
2023-04-19T07:09:33.523Z,5.22
2023-04-19T07:12:01.726Z,4.63
2023-04-19T07:14:28.401Z,6.90
2023-04-19T07:16:55.253Z,6.05
2023-04-19T07:19:22.885Z,7.28
2023-04-19T07:21:50.769Z,9.38
2023-04-19T07:24:18.092Z,6.53
2023-04-19T07:26:45.056Z,6.75
2023-04-19T07:29:14.220Z,7.80
2023-04-19T07:31:42.061Z,6.43
2023-04-19T07:34:09.028Z,6.20
2023-04-19T07:36:37.086Z,6.05
2023-04-19T07:39:04.904Z,7.32
2023-04-19T07:41:35.917Z,6.65
2023-04-19T07:44:03.205Z,6.63
2023-04-19T07:46:30.518Z,5.10
2023-04-19T07:48:57.310Z,6.05
2023-04-19T07:51:24.951Z,5.55
2023-04-19T07:53:51.841Z,6.15
2023-04-19T07:56:20.158Z,5.13
2023-04-19T07:58:53.661Z,4.63
2023-04-19T08:01:27.605Z,4.97
2023-04-19T08:03:54.502Z,4.50
2023-04-19T08:06:24.109Z,5.18
2023-04-19T08:08:53.885Z,4.97
2023-04-19T08:11:20.773Z,4.68
2023-04-19T08:14:02.956Z,4.35
2023-04-19T08:17:14.139Z,5.05
2023-04-19T08:19:20.145Z,5.18
2023-04-19T08:21:48.236Z,5.22
2023-04-19T08:24:15.325Z,7.22
2023-04-19T08:26:42.548Z,5.38
2023-04-19T08:29:09.545Z,4.93
2023-04-19T08:31:36.787Z,5.85
2023-04-19T08:34:04.023Z,4.75
2023-04-19T08:36:39.032Z,4.38
2023-04-19T08:39:20.891Z,4.10
2023-04-19T08:42:04.849Z,3.97
2023-04-19T08:44:36.710Z,3.92
2023-04-19T08:47:05.792Z,4.43
2023-04-19T08:49:36.969Z,4.57
2023-04-19T08:52:05.057Z,4.80
2023-04-19T08:54:32.360Z,4.45
2023-04-19T08:57:00.688Z,6.13
2023-04-19T08:59:30.785Z,4.55
2023-04-19T09:02:01.387Z,4.20
2023-04-19T09:07:01.244Z,4.05
2023-04-19T09:12:00.662Z,5.10
2023-04-19T09:14:28.884Z,4.40
2023-04-19T09:17:17.761Z,4.18
2023-04-19T09:19:49.034Z,4.28
2023-04-19T09:22:16.053Z,6.63
2023-04-19T09:27:13.137Z,3.92
2023-04-19T09:29:40.088Z,4.82
2023-04-19T09:32:07.018Z,8.35
2023-04-19T09:34:33.737Z,4.97
2023-04-19T09:37:25.042Z,4.30
2023-04-19T09:40:00.673Z,5.32
2023-04-19T09:48:08.428Z,5.15
2023-04-19T09:50:50.590Z,4.93
2023-04-19T09:53:21.854Z,4.63
2023-04-19T09:55:59.736Z,4.45
2023-04-19T09:58:38.140Z,5.25
2023-04-19T10:01:16.768Z,4.43
2023-04-19T10:03:49.419Z,3.58
2023-04-19T10:08:50.527Z,4.28
2023-04-19T10:11:18.834Z,3.97
2023-04-19T10:13:47.311Z,6.75
2023-04-19T10:16:19.555Z,3.45
2023-04-19T10:18:50.285Z,3.75
2023-04-19T10:21:19.386Z,4.43
2023-04-19T10:23:47.198Z,5.57
2023-04-19T10:26:13.940Z,3.40
2023-04-19T10:28:42.284Z,3.60
2023-04-19T10:31:13.484Z,4.35
2023-04-19T10:33:41.557Z,5.53
2023-04-19T10:36:14.970Z,4.35
2023-04-19T10:38:44.761Z,3.75
2023-04-19T10:41:14.478Z,4.13
2023-04-19T10:44:09.747Z,5.18
2023-04-19T10:46:40.344Z,5.38
2023-04-19T10:49:09.750Z,4.22
2023-04-19T10:51:39.019Z,3.10
2023-04-19T10:54:07.470Z,3.38
2023-04-19T10:56:34.338Z,4.85
2023-04-19T10:59:21.279Z,3.90
2023-04-19T11:01:51.081Z,3.55
2023-04-19T11:04:19.426Z,4.13
2023-04-19T11:06:54.940Z,4.18
2023-04-19T11:09:26.691Z,4.97
2023-04-19T11:11:57.784Z,4.28
2023-04-19T11:14:25.748Z,3.78
2023-04-19T11:16:52.440Z,6.10
2023-04-19T11:19:20.214Z,4.10
2023-04-19T11:21:48.017Z,4.43
2023-04-19T11:24:18.722Z,3.63
2023-04-19T11:26:51.619Z,4.15
2023-04-19T11:29:21.846Z,3.97
2023-04-19T11:31:48.887Z,3.97
2023-04-19T11:34:15.957Z,4.30
2023-04-19T11:36:52.622Z,3.70
2023-04-19T11:39:19.845Z,4.95
2023-04-19T11:41:47.475Z,4.40
2023-04-19T11:44:20.335Z,3.47
2023-04-19T11:47:05.297Z,3.80
2023-04-19T11:49:34.154Z,4.57
2023-04-19T11:52:05.390Z,3.33
2023-04-19T11:54:33.777Z,5.07
2023-04-19T11:57:05.859Z,3.08
2023-04-19T11:59:34.212Z,3.70
2023-04-19T12:02:11.383Z,4.80
2023-04-19T12:04:39.706Z,4.20
2023-04-19T12:07:07.244Z,4.70
2023-04-19T12:09:36.137Z,5.15
2023-04-19T12:12:03.786Z,4.30
2023-04-19T12:14:31.803Z,3.55
2023-04-19T12:17:08.655Z,3.20
2023-04-19T12:19:44.301Z,3.22
2023-04-19T12:22:16.241Z,3.38
2023-04-19T12:24:43.823Z,3.67
2023-04-19T12:27:11.454Z,3.17
2023-04-19T12:29:39.029Z,4.07
2023-04-19T12:32:06.589Z,4.63
2023-04-19T12:34:33.484Z,3.33
2023-04-19T12:37:00.898Z,4.85
2023-04-19T12:39:28.750Z,3.35
2023-04-19T12:41:56.402Z,4.03
2023-04-19T12:44:23.408Z,3.17
2023-04-19T12:46:50.263Z,3.00
2023-04-19T12:49:20.130Z,3.70
2023-04-19T12:51:47.774Z,5.88
2023-04-19T12:54:15.545Z,4.25
2023-04-19T12:56:42.275Z,4.00
2023-04-19T12:59:09.100Z,3.35
2023-04-19T13:01:35.954Z,3.55
2023-04-19T13:04:03.269Z,3.80
2023-04-19T13:06:30.203Z,3.35
2023-04-19T13:09:00.824Z,4.28
2023-04-19T13:11:27.715Z,4.10
2023-04-19T13:13:54.492Z,4.63
2023-04-19T13:16:21.496Z,4.00
2023-04-19T13:18:48.524Z,5.72
2023-04-19T13:21:15.307Z,3.10
2023-04-19T13:23:44.616Z,4.35
2023-04-19T13:26:11.594Z,3.70
2023-04-19T13:28:38.573Z,3.53
2023-04-19T13:31:05.892Z,3.75
2023-04-19T13:33:33.121Z,3.13
2023-04-19T13:36:03.583Z,3.40
2023-04-19T13:38:33.482Z,2.92
2023-04-19T13:41:00.968Z,2.80
2023-04-19T13:43:30.128Z,3.30
2023-04-19T13:45:56.866Z,3.05
2023-04-19T13:48:26.821Z,3.63
2023-04-19T13:50:55.041Z,3.65
2023-04-19T13:53:21.936Z,4.07
2023-04-19T13:55:48.760Z,3.90
2023-04-19T13:58:15.684Z,2.58
2023-04-19T14:00:42.497Z,2.45
2023-04-19T14:03:09.414Z,2.28
2023-04-19T14:05:36.313Z,2.88
2023-04-19T14:08:03.165Z,2.83
2023-04-19T14:10:30.184Z,3.00
2023-04-19T14:12:57.225Z,3.72
2023-04-19T14:15:25.564Z,3.25
2023-04-19T14:17:52.854Z,4.25
2023-04-19T14:20:19.735Z,3.08
2023-04-19T14:22:46.971Z,4.13
2023-04-19T14:25:20.326Z,3.33
2023-04-19T14:27:47.348Z,2.67
2023-04-19T14:30:14.329Z,3.78
2023-04-19T14:32:41.243Z,2.53
2023-04-19T14:35:08.644Z,3.47
2023-04-19T14:37:35.683Z,2.83
2023-04-19T14:40:02.806Z,2.92
2023-04-19T14:42:29.623Z,2.60
2023-04-19T14:44:58.118Z,3.08
2023-04-19T14:47:25.125Z,3.10
2023-04-19T14:49:52.525Z,3.03
2023-04-19T14:52:19.319Z,3.42
2023-04-19T14:54:46.214Z,3.42
2023-04-19T14:57:15.235Z,2.83
2023-04-19T14:59:42.097Z,3.60
2023-04-19T15:02:10.756Z,2.75
2023-04-19T15:04:40.696Z,3.08
2023-04-19T15:09:34.825Z,3.13
2023-04-19T15:12:01.886Z,4.22
2023-04-19T15:14:28.561Z,2.70
2023-04-19T15:16:55.580Z,3.28
2023-04-19T15:19:22.350Z,2.75
2023-04-19T15:21:49.121Z,3.55
2023-04-19T15:24:15.906Z,5.70
2023-04-19T15:26:44.430Z,4.57
2023-04-19T15:29:11.388Z,3.15
2023-04-19T15:31:38.166Z,3.95
2023-04-19T15:34:05.272Z,4.28
2023-04-19T15:36:34.061Z,3.47
2023-04-19T15:39:00.952Z,3.45
2023-04-19T15:41:27.825Z,2.75
2023-04-19T15:43:54.559Z,3.47
2023-04-19T15:46:21.481Z,6.95
2023-04-19T15:48:48.618Z,3.78
2023-04-19T15:51:16.191Z,3.38
2023-04-19T15:53:43.112Z,2.75
2023-04-19T15:56:10.368Z,3.70
2023-04-19T15:58:37.720Z,2.72
2023-04-19T16:01:08.481Z,3.03
2023-04-19T16:03:35.464Z,3.08
2023-04-19T16:06:02.406Z,4.28
2023-04-19T16:08:30.416Z,2.47
2023-04-19T16:10:57.298Z,2.60
2023-04-19T16:13:24.221Z,2.78
2023-04-19T16:15:51.029Z,3.33
2023-04-19T16:18:18.166Z,3.40
2023-04-19T16:20:45.204Z,2.92
2023-04-19T16:23:12.177Z,4.25
2023-04-19T16:25:41.169Z,3.17
2023-04-19T16:28:08.175Z,3.35
2023-04-19T16:30:35.053Z,3.83
2023-04-19T16:33:01.803Z,4.55
2023-04-19T16:35:28.795Z,4.28
2023-04-19T16:37:57.543Z,3.50
2023-04-19T16:40:24.843Z,3.78
2023-04-19T16:42:51.898Z,4.57
2023-04-19T16:45:18.803Z,4.13
2023-04-19T16:47:47.036Z,4.47
2023-04-19T16:50:14.558Z,5.07
2023-04-19T16:52:41.702Z,3.13
2023-04-19T16:55:08.786Z,3.00
2023-04-19T16:57:36.767Z,4.20
2023-04-19T17:00:05.841Z,2.85
2023-04-19T17:02:33.678Z,3.30
2023-04-19T17:05:00.713Z,3.65
2023-04-19T17:07:27.841Z,3.40
2023-04-19T17:09:55.524Z,18.83
2023-04-19T17:12:22.407Z,8.63
2023-04-19T17:14:49.152Z,6.15
2023-04-19T17:17:16.040Z,16.08
2023-04-19T17:19:42.708Z,9.90
2023-04-19T17:22:09.498Z,4.68
2023-04-19T17:24:36.296Z,4.78
2023-04-19T17:27:03.170Z,7.90
2023-04-19T17:29:30.050Z,4.70
2023-04-19T17:31:56.872Z,4.78
2023-04-19T17:34:26.903Z,6.47
2023-04-19T17:36:54.309Z,6.97
2023-04-19T17:39:21.059Z,9.90
2023-04-19T17:41:47.958Z,9.55
2023-04-19T17:44:14.859Z,13.50
2023-04-19T17:46:41.779Z,24.38
2023-04-19T17:49:09.111Z,65.57
2023-04-19T17:51:36.186Z,49.72
2023-04-19T17:54:03.422Z,79.05
2023-04-19T17:56:31.455Z,135.40
2023-04-19T17:59:00.747Z,98.03
2023-04-19T18:01:27.676Z,110.85
2023-04-19T18:03:54.523Z,77.28
2023-04-19T18:06:21.746Z,69.07
2023-04-19T18:08:48.594Z,67.63
2023-04-19T18:11:18.303Z,66.82
2023-04-19T18:13:45.334Z,97.03
2023-04-19T18:16:13.701Z,83.13
2023-04-19T18:18:40.689Z,69.78
2023-04-19T18:21:08.445Z,80.15
2023-04-19T18:23:35.428Z,86.97
2023-04-19T18:26:04.144Z,82.10
2023-04-19T18:28:31.375Z,67.72
2023-04-19T18:30:58.270Z,22.13
2023-04-19T18:33:25.149Z,17.60
2023-04-19T18:35:54.174Z,14.32
2023-04-19T18:38:21.164Z,21.05
2023-04-19T18:40:48.217Z,15.15
2023-04-19T18:43:15.822Z,14.43
2023-04-19T18:45:42.725Z,13.45
2023-04-19T18:48:09.994Z,11.73
2023-04-19T18:50:38.349Z,9.20
2023-04-19T18:53:05.509Z,7.82
2023-04-19T18:55:32.382Z,7.00
2023-04-19T18:58:01.363Z,8.35
2023-04-19T19:00:28.486Z,6.85
2023-04-19T19:02:57.745Z,8.48
2023-04-19T19:05:25.095Z,9.63
2023-04-19T19:07:52.802Z,15.73
2023-04-19T19:10:22.699Z,15.63
2023-04-19T19:13:01.012Z,13.85
2023-04-19T19:15:28.076Z,12.40
2023-04-19T19:17:55.095Z,7.22
2023-04-19T19:20:22.322Z,4.68
2023-04-19T19:22:49.372Z,6.32
2023-04-19T19:25:16.547Z,6.05
2023-04-19T19:28:02.244Z,6.13
2023-04-19T19:30:33.843Z,5.47
2023-04-19T19:33:03.371Z,4.10
2023-04-19T19:35:30.580Z,4.72
2023-04-19T19:38:00.918Z,5.37
2023-04-19T19:40:31.109Z,5.60
2023-04-19T19:43:00.604Z,5.60
2023-04-19T19:45:37.444Z,6.43
2023-04-19T19:48:05.523Z,11.15
2023-04-19T19:53:29.484Z,7.25
2023-04-19T19:55:57.688Z,6.75
2023-04-19T19:58:47.702Z,8.10
2023-04-19T20:01:24.238Z,7.78
2023-04-19T20:03:52.212Z,9.32
2023-04-19T20:07:13.496Z,12.68
2023-04-19T20:09:06.466Z,9.52
2023-04-19T20:11:33.439Z,8.63
2023-04-19T20:14:00.586Z,8.27
2023-04-19T20:16:29.350Z,9.38
2023-04-19T20:18:58.267Z,8.88
2023-04-19T20:21:25.501Z,7.05
2023-04-19T20:23:54.196Z,7.30
2023-04-19T20:26:21.277Z,8.95
2023-04-19T20:28:50.035Z,9.23
2023-04-19T20:31:17.527Z,7.10
2023-04-19T20:33:47.408Z,6.93
2023-04-19T20:36:14.627Z,8.48
2023-04-19T20:38:41.772Z,8.77
2023-04-19T20:41:08.866Z,8.27
2023-04-19T20:43:36.558Z,8.57
2023-04-19T20:46:03.888Z,8.82
2023-04-19T20:48:30.986Z,9.00
2023-04-19T20:50:58.122Z,9.18
2023-04-19T20:53:25.558Z,8.75
2023-04-19T20:55:52.776Z,7.57
2023-04-19T20:58:19.719Z,9.45
2023-04-19T21:00:46.774Z,7.60
2023-04-19T21:03:13.778Z,7.68
2023-04-19T21:05:41.265Z,5.35
2023-04-19T21:08:08.092Z,5.57
2023-04-19T21:10:35.133Z,4.43
2023-04-19T21:13:02.071Z,5.35
2023-04-19T21:15:28.899Z,5.97
2023-04-19T21:17:55.668Z,7.10
2023-04-19T21:20:25.766Z,5.10
2023-04-19T21:22:52.546Z,6.75
2023-04-19T21:25:19.510Z,4.88
2023-04-19T21:27:46.528Z,7.75
2023-04-19T21:30:13.690Z,10.13
2023-04-19T21:32:40.606Z,7.40
2023-04-19T21:35:08.508Z,8.32
2023-04-19T21:37:36.649Z,7.35
2023-04-19T21:40:03.631Z,5.57
2023-04-19T21:42:31.108Z,5.40
2023-04-19T21:44:57.973Z,4.93
2023-04-19T21:47:24.815Z,6.45
2023-04-19T21:49:51.796Z,3.92
2023-04-19T21:52:18.593Z,5.65
2023-04-19T21:54:45.688Z,9.63
2023-04-19T21:57:12.773Z,7.05
2023-04-19T21:59:39.602Z,8.13
2023-04-19T22:02:06.876Z,6.45
2023-04-19T22:04:33.750Z,5.47
2023-04-19T22:07:03.576Z,6.32
2023-04-19T22:09:30.932Z,5.55
2023-04-19T22:11:57.847Z,7.15
2023-04-19T22:14:24.960Z,5.90
2023-04-19T22:16:52.021Z,5.88
2023-04-19T22:19:19.109Z,5.30
2023-04-19T22:21:46.785Z,5.30
2023-04-19T22:24:13.700Z,4.45
2023-04-19T22:26:41.548Z,5.75
2023-04-19T22:29:08.578Z,4.65
2023-04-19T22:31:35.363Z,5.05
2023-04-19T22:34:02.280Z,4.80
2023-04-19T22:36:30.330Z,5.50
2023-04-19T22:38:57.825Z,7.85
2023-04-19T22:41:24.587Z,5.47
2023-04-19T22:43:51.390Z,4.47
2023-04-19T22:46:18.207Z,8.65
2023-04-19T22:48:44.969Z,15.52
2023-04-19T22:51:11.638Z,11.52
2023-04-19T22:53:38.434Z,9.63
2023-04-19T22:56:06.050Z,10.60
2023-04-19T22:58:32.780Z,10.50
2023-04-19T23:00:59.575Z,6.78
2023-04-19T23:03:26.581Z,6.55
2023-04-19T23:05:54.366Z,8.45
2023-04-19T23:08:23.403Z,7.55
2023-04-19T23:10:54.969Z,5.43
2023-04-19T23:13:21.809Z,4.68
2023-04-19T23:15:48.678Z,4.97
2023-04-19T23:18:16.705Z,6.13
2023-04-19T23:20:43.491Z,5.55
2023-04-19T23:23:10.293Z,4.95
2023-04-19T23:25:37.044Z,5.30
2023-04-19T23:28:03.836Z,7.18
2023-04-19T23:30:32.073Z,4.90
2023-04-19T23:32:58.955Z,7.53
2023-04-19T23:35:25.868Z,5.28
2023-04-19T23:37:52.708Z,6.47
2023-04-19T23:40:19.549Z,4.75
2023-04-19T23:42:46.475Z,5.35
2023-04-19T23:45:13.329Z,4.53
2023-04-19T23:47:40.272Z,4.25
2023-04-19T23:50:07.764Z,3.72
2023-04-19T23:52:34.540Z,3.38
2023-04-19T23:55:01.332Z,3.40
2023-04-19T23:57:28.081Z,4.20
2023-04-19T23:59:57.137Z,3.03
